DLH6JT EDDF-LKPR
Flight info
| Callsign | DLH6JT |
|---|---|
| Flight time | 0h 48m |
| Altitude | 29000 |
| Route | SULUS7S/18 SULUS Z650 TONSU Z35 ODOMO DCT LOMKI |
| Aircraft | A320/M-SDE2E3FGIJ1LORWXYZ/HB1 |
Departure
| Time | 2026-04-15 15:53 |
|---|---|
| Airport | Frankfurt Main Airport (EDDF) |
Arrival
| Time | 2026-04-15 16:41 |
|---|---|
| Airport | Václav Havel Airport Prague (LKPR) |
| Time | Latitude | Longitude | Altitude | Speed | Heading |
|---|---|---|---|---|---|
| 2026-04-15 15:12 | 50.04687 | 8.56700 | 363 ft | 0 kts | 115° |
| 2026-04-15 15:39 | 50.04692 | 8.56683 | 360 ft | 4 kts | 115° |
| 2026-04-15 15:39 | 50.04703 | 8.56646 | 360 ft | 4 kts | 121° |
| 2026-04-15 15:39 | 50.04717 | 8.56626 | 362 ft | 4 kts | 192° |
| 2026-04-15 15:40 | 50.04740 | 8.56642 | 358 ft | 3 kts | 204° |
| 2026-04-15 15:40 | 50.04760 | 8.56656 | 361 ft | 4 kts | 208° |
| 2026-04-15 15:40 | 50.04780 | 8.56672 | 365 ft | 0 kts | 205° |
| 2026-04-15 15:43 | 50.04774 | 8.56668 | 365 ft | 7 kts | 205° |
| 2026-04-15 15:43 | 50.04717 | 8.56577 | 359 ft | 13 kts | 233° |
| 2026-04-15 15:43 | 50.04670 | 8.56449 | 359 ft | 14 kts | 250° |
| 2026-04-15 15:44 | 50.04635 | 8.56301 | 359 ft | 15 kts | 250° |
| 2026-04-15 15:44 | 50.04597 | 8.56143 | 363 ft | 16 kts | 249° |
| 2026-04-15 15:44 | 50.04548 | 8.55973 | 365 ft | 18 kts | 221° |
| 2026-04-15 15:44 | 50.04426 | 8.55909 | 363 ft | 19 kts | 195° |
| 2026-04-15 15:45 | 50.04291 | 8.55959 | 359 ft | 21 kts | 161° |
| 2026-04-15 15:45 | 50.04211 | 8.55823 | 358 ft | 20 kts | 249° |
| 2026-04-15 15:45 | 50.04161 | 8.55609 | 356 ft | 23 kts | 250° |
| 2026-04-15 15:45 | 50.04104 | 8.55372 | 357 ft | 24 kts | 250° |
| 2026-04-15 15:46 | 50.04045 | 8.55125 | 357 ft | 25 kts | 249° |
| 2026-04-15 15:46 | 50.03982 | 8.54862 | 354 ft | 27 kts | 250° |
| 2026-04-15 15:46 | 50.03913 | 8.54573 | 352 ft | 30 kts | 249° |
| 2026-04-15 15:46 | 50.03819 | 8.54279 | 350 ft | 31 kts | 235° |
| 2026-04-15 15:47 | 50.03738 | 8.53964 | 346 ft | 32 kts | 249° |
| 2026-04-15 15:47 | 50.03659 | 8.53633 | 347 ft | 33 kts | 249° |
| 2026-04-15 15:47 | 50.03575 | 8.53294 | 335 ft | 34 kts | 249° |
| 2026-04-15 15:47 | 50.03491 | 8.52945 | 332 ft | 35 kts | 249° |
| 2026-04-15 15:48 | 50.03433 | 8.52729 | 331 ft | 4 kts | 250° |
| 2026-04-15 15:48 | 50.03433 | 8.52727 | 331 ft | 0 kts | 250° |
| 2026-04-15 15:51 | 50.03430 | 8.52718 | 332 ft | 6 kts | 250° |
| 2026-04-15 15:52 | 50.03399 | 8.52609 | 333 ft | 11 kts | 220° |
| 2026-04-15 15:52 | 50.03318 | 8.52593 | 335 ft | 13 kts | 181° |
| 2026-04-15 15:52 | 50.03115 | 8.52597 | 336 ft | 62 kts | 180° |
| 2026-04-15 15:52 | 50.02448 | 8.52603 | 335 ft | 126 kts | 179° |
| 2026-04-15 15:53 | 50.01413 | 8.52615 | 488 ft | 160 kts | 179° |
| 2026-04-15 15:53 | 50.00311 | 8.52640 | 1251 ft | 159 kts | 179° |
| 2026-04-15 15:53 | 49.99189 | 8.52651 | 1921 ft | 167 kts | 180° |
| 2026-04-15 15:53 | 49.97953 | 8.52670 | 2310 ft | 188 kts | 175° |
| 2026-04-15 15:54 | 49.96653 | 8.53399 | 2650 ft | 214 kts | 144° |
| 2026-04-15 15:54 | 49.95698 | 8.55252 | 3365 ft | 226 kts | 120° |
| 2026-04-15 15:54 | 49.94917 | 8.57420 | 3857 ft | 232 kts | 120° |
| 2026-04-15 15:54 | 49.94213 | 8.59658 | 3982 ft | 232 kts | 107° |
| 2026-04-15 15:55 | 49.93987 | 8.62262 | 4054 ft | 260 kts | 94° |
| 2026-04-15 15:55 | 49.93879 | 8.65127 | 4915 ft | 267 kts | 95° |
| 2026-04-15 15:55 | 49.93534 | 8.67952 | 5902 ft | 269 kts | 111° |
| 2026-04-15 15:55 | 49.92606 | 8.70474 | 6815 ft | 272 kts | 131° |
| 2026-04-15 15:56 | 49.91182 | 8.72413 | 7676 ft | 275 kts | 147° |
| 2026-04-15 15:56 | 49.89605 | 8.74149 | 8542 ft | 281 kts | 143° |
| 2026-04-15 15:56 | 49.88205 | 8.76327 | 9395 ft | 290 kts | 128° |
| 2026-04-15 15:56 | 49.87144 | 8.79029 | 10235 ft | 297 kts | 121° |
| 2026-04-15 15:57 | 49.86109 | 8.81914 | 10667 ft | 318 kts | 121° |
| 2026-04-15 15:57 | 49.84997 | 8.84994 | 11049 ft | 335 kts | 121° |
| 2026-04-15 15:57 | 49.83855 | 8.88158 | 11180 ft | 337 kts | 121° |
| 2026-04-15 15:57 | 49.82708 | 8.91329 | 11190 ft | 337 kts | 121° |
| 2026-04-15 15:58 | 49.81557 | 8.94497 | 11194 ft | 337 kts | 121° |
| 2026-04-15 15:58 | 49.80405 | 8.97659 | 11189 ft | 337 kts | 121° |
| 2026-04-15 15:58 | 49.79241 | 9.00845 | 11538 ft | 344 kts | 121° |
| 2026-04-15 15:58 | 49.78063 | 9.04063 | 12486 ft | 344 kts | 121° |
| 2026-04-15 15:59 | 49.76881 | 9.07300 | 13342 ft | 347 kts | 119° |
| 2026-04-15 15:59 | 49.75949 | 9.10772 | 14131 ft | 353 kts | 107° |
| 2026-04-15 15:59 | 49.75352 | 9.14472 | 14813 ft | 357 kts | 104° |
| 2026-04-15 15:59 | 49.74761 | 9.18220 | 15487 ft | 361 kts | 104° |
| 2026-04-15 16:00 | 49.74158 | 9.22015 | 16145 ft | 366 kts | 104° |
| 2026-04-15 16:00 | 49.73541 | 9.25852 | 16809 ft | 370 kts | 105° |
| 2026-04-15 16:00 | 49.72910 | 9.29733 | 17467 ft | 375 kts | 105° |
| 2026-04-15 16:00 | 49.72270 | 9.33658 | 18127 ft | 379 kts | 105° |
| 2026-04-15 16:01 | 49.71620 | 9.37626 | 18727 ft | 383 kts | 105° |
| 2026-04-15 16:01 | 49.70964 | 9.41639 | 19312 ft | 387 kts | 105° |
| 2026-04-15 16:01 | 49.70303 | 9.45689 | 19884 ft | 390 kts | 104° |
| 2026-04-15 16:01 | 49.69634 | 9.49767 | 20469 ft | 393 kts | 105° |
| 2026-04-15 16:02 | 49.68955 | 9.53876 | 21055 ft | 396 kts | 104° |
| 2026-04-15 16:02 | 49.68270 | 9.58015 | 21622 ft | 399 kts | 104° |
| 2026-04-15 16:02 | 49.67616 | 9.62197 | 22166 ft | 403 kts | 100° |
| 2026-04-15 16:02 | 49.67357 | 9.66515 | 22699 ft | 406 kts | 89° |
| 2026-04-15 16:03 | 49.67607 | 9.70858 | 23233 ft | 408 kts | 78° |
| 2026-04-15 16:03 | 49.68298 | 9.75120 | 23766 ft | 411 kts | 73° |
| 2026-04-15 16:03 | 49.69065 | 9.79387 | 24215 ft | 413 kts | 73° |
| 2026-04-15 16:03 | 49.69804 | 9.83690 | 24655 ft | 416 kts | 75° |
| 2026-04-15 16:04 | 49.70498 | 9.88039 | 25096 ft | 419 kts | 75° |
| 2026-04-15 16:04 | 49.71163 | 9.92429 | 25525 ft | 421 kts | 76° |
| 2026-04-15 16:04 | 49.71820 | 9.96867 | 25962 ft | 424 kts | 75° |
| 2026-04-15 16:04 | 49.72474 | 10.01317 | 26384 ft | 426 kts | 75° |
| 2026-04-15 16:05 | 49.73137 | 10.05792 | 26811 ft | 428 kts | 75° |
| 2026-04-15 16:05 | 49.73810 | 10.10292 | 27227 ft | 431 kts | 75° |
| 2026-04-15 16:05 | 49.74498 | 10.14807 | 27639 ft | 433 kts | 74° |
| 2026-04-15 16:05 | 49.75194 | 10.19349 | 28045 ft | 436 kts | 74° |
| 2026-04-15 16:06 | 49.75887 | 10.23927 | 28422 ft | 439 kts | 74° |
| 2026-04-15 16:06 | 49.76581 | 10.28539 | 28821 ft | 442 kts | 74° |
| 2026-04-15 16:06 | 49.77273 | 10.33119 | 29147 ft | 444 kts | 74° |
| 2026-04-15 16:06 | 49.77968 | 10.37742 | 29221 ft | 435 kts | 74° |
| 2026-04-15 16:07 | 49.78636 | 10.42264 | 29209 ft | 418 kts | 74° |
| 2026-04-15 16:07 | 49.79266 | 10.46556 | 29222 ft | 411 kts | 74° |
| 2026-04-15 16:08 | 49.81174 | 10.59456 | 29211 ft | 407 kts | 74° |
| 2026-04-15 16:08 | 49.82431 | 10.68005 | 29217 ft | 407 kts | 74° |
| 2026-04-15 16:09 | 49.83671 | 10.76489 | 29225 ft | 407 kts | 74° |
| 2026-04-15 16:09 | 49.84922 | 10.85096 | 29207 ft | 407 kts | 74° |
| 2026-04-15 16:10 | 49.86147 | 10.93590 | 29203 ft | 407 kts | 74° |
| 2026-04-15 16:10 | 49.87369 | 11.02145 | 29220 ft | 406 kts | 74° |
| 2026-04-15 16:11 | 49.88595 | 11.10751 | 29209 ft | 406 kts | 74° |
| 2026-04-15 16:11 | 49.89808 | 11.19298 | 29203 ft | 406 kts | 74° |
| 2026-04-15 16:12 | 49.91014 | 11.27852 | 29195 ft | 406 kts | 74° |
| 2026-04-15 16:12 | 49.92220 | 11.36411 | 29193 ft | 406 kts | 74° |
| 2026-04-15 16:13 | 49.93422 | 11.44986 | 29202 ft | 406 kts | 74° |
| 2026-04-15 16:13 | 49.94409 | 11.52109 | 29207 ft | 406 kts | 74° |
| 2026-04-15 16:14 | 49.95520 | 11.60712 | 29203 ft | 408 kts | 80° |
| 2026-04-15 16:14 | 49.95471 | 11.69570 | 29202 ft | 412 kts | 90° |
| 2026-04-15 16:15 | 49.95145 | 11.78451 | 29196 ft | 412 kts | 90° |
| 2026-04-15 16:15 | 49.94821 | 11.87339 | 29196 ft | 412 kts | 90° |
| 2026-04-15 16:16 | 49.94514 | 11.96218 | 29208 ft | 412 kts | 89° |
| 2026-04-15 16:16 | 49.94325 | 12.05098 | 29204 ft | 411 kts | 88° |
| 2026-04-15 16:17 | 49.94179 | 12.13967 | 29198 ft | 411 kts | 88° |
| 2026-04-15 16:17 | 49.94004 | 12.22834 | 29193 ft | 411 kts | 88° |
| 2026-04-15 16:18 | 49.93800 | 12.31692 | 29193 ft | 411 kts | 88° |
| 2026-04-15 16:18 | 49.93575 | 12.40555 | 29209 ft | 411 kts | 89° |
| 2026-04-15 16:19 | 49.93320 | 12.49398 | 29211 ft | 410 kts | 89° |
| 2026-04-15 16:19 | 49.93059 | 12.58234 | 29208 ft | 410 kts | 89° |
| 2026-04-15 16:20 | 49.92796 | 12.67058 | 29206 ft | 409 kts | 89° |
| 2026-04-15 16:20 | 49.92526 | 12.75882 | 29203 ft | 409 kts | 89° |
| 2026-04-15 16:21 | 49.92252 | 12.84704 | 29225 ft | 409 kts | 89° |
| 2026-04-15 16:21 | 49.91973 | 12.93485 | 29230 ft | 407 kts | 89° |
| 2026-04-15 16:22 | 49.91686 | 13.02258 | 29227 ft | 407 kts | 89° |
| 2026-04-15 16:22 | 49.91394 | 13.11031 | 29210 ft | 407 kts | 89° |
| 2026-04-15 16:23 | 49.91092 | 13.19917 | 29220 ft | 424 kts | 89° |
| 2026-04-15 16:23 | 49.90934 | 13.24494 | 28787 ft | 424 kts | 89° |
| 2026-04-15 16:23 | 49.90773 | 13.29019 | 27889 ft | 418 kts | 90° |
| 2026-04-15 16:23 | 49.90607 | 13.33485 | 27144 ft | 408 kts | 90° |
| 2026-04-15 16:24 | 49.90442 | 13.37776 | 26724 ft | 391 kts | 90° |
| 2026-04-15 16:24 | 49.90310 | 13.41926 | 26276 ft | 382 kts | 86° |
| 2026-04-15 16:24 | 49.90587 | 13.45979 | 25820 ft | 375 kts | 74° |
| 2026-04-15 16:24 | 49.91369 | 13.49796 | 25373 ft | 369 kts | 63° |
| 2026-04-15 16:25 | 49.92595 | 13.53240 | 24920 ft | 362 kts | 51° |
| 2026-04-15 16:25 | 49.94115 | 13.56334 | 24470 ft | 359 kts | 49° |
| 2026-04-15 16:25 | 49.95619 | 13.59360 | 24026 ft | 358 kts | 49° |
| 2026-04-15 16:25 | 49.97131 | 13.62424 | 23527 ft | 358 kts | 50° |
| 2026-04-15 16:26 | 49.98635 | 13.65487 | 23059 ft | 355 kts | 50° |
| 2026-04-15 16:26 | 50.00128 | 13.68527 | 22616 ft | 353 kts | 50° |
| 2026-04-15 16:26 | 50.01614 | 13.71546 | 22181 ft | 350 kts | 50° |
| 2026-04-15 16:26 | 50.03087 | 13.74547 | 21741 ft | 348 kts | 50° |
| 2026-04-15 16:27 | 50.04554 | 13.77534 | 21308 ft | 346 kts | 51° |
| 2026-04-15 16:27 | 50.06015 | 13.80511 | 20894 ft | 345 kts | 51° |
| 2026-04-15 16:27 | 50.07291 | 13.83674 | 20458 ft | 346 kts | 63° |
| 2026-04-15 16:27 | 50.08090 | 13.87214 | 20008 ft | 348 kts | 77° |
| 2026-04-15 16:28 | 50.08515 | 13.90919 | 19561 ft | 348 kts | 79° |
| 2026-04-15 16:28 | 50.08929 | 13.94629 | 19114 ft | 348 kts | 79° |
| 2026-04-15 16:28 | 50.09351 | 13.98342 | 18667 ft | 349 kts | 79° |
| 2026-04-15 16:28 | 50.09775 | 14.02068 | 18185 ft | 349 kts | 79° |
| 2026-04-15 16:29 | 50.10198 | 14.05778 | 17733 ft | 348 kts | 79° |
| 2026-04-15 16:29 | 50.10619 | 14.09477 | 17301 ft | 346 kts | 79° |
| 2026-04-15 16:29 | 50.11037 | 14.13161 | 16869 ft | 345 kts | 79° |
| 2026-04-15 16:29 | 50.11452 | 14.16837 | 16438 ft | 344 kts | 79° |
| 2026-04-15 16:30 | 50.11861 | 14.20496 | 16075 ft | 341 kts | 79° |
| 2026-04-15 16:30 | 50.12259 | 14.24104 | 15571 ft | 334 kts | 79° |
| 2026-04-15 16:30 | 50.12644 | 14.27618 | 15085 ft | 326 kts | 80° |
| 2026-04-15 16:30 | 50.13018 | 14.31075 | 14602 ft | 321 kts | 79° |
| 2026-04-15 16:31 | 50.13385 | 14.34491 | 14129 ft | 319 kts | 82° |
| 2026-04-15 16:31 | 50.13391 | 14.37924 | 13608 ft | 317 kts | 98° |
| 2026-04-15 16:31 | 50.12823 | 14.41213 | 13085 ft | 316 kts | 114° |
| 2026-04-15 16:31 | 50.11735 | 14.44153 | 12558 ft | 311 kts | 128° |
| 2026-04-15 16:32 | 50.10432 | 14.46821 | 11946 ft | 308 kts | 128° |
| 2026-04-15 16:32 | 50.09142 | 14.49462 | 11320 ft | 305 kts | 128° |
| 2026-04-15 16:32 | 50.07867 | 14.52073 | 10707 ft | 301 kts | 128° |
| 2026-04-15 16:32 | 50.06606 | 14.54654 | 10103 ft | 298 kts | 128° |
| 2026-04-15 16:33 | 50.05363 | 14.57200 | 9438 ft | 294 kts | 128° |
| 2026-04-15 16:33 | 50.04132 | 14.59718 | 8782 ft | 290 kts | 128° |
| 2026-04-15 16:33 | 50.02918 | 14.62197 | 8138 ft | 286 kts | 128° |
| 2026-04-15 16:33 | 50.01719 | 14.64650 | 7507 ft | 283 kts | 128° |
| 2026-04-15 16:34 | 50.00357 | 14.66785 | 6890 ft | 276 kts | 149° |
| 2026-04-15 16:34 | 49.98574 | 14.67714 | 6387 ft | 272 kts | 178° |
| 2026-04-15 16:34 | 49.96744 | 14.67214 | 5998 ft | 267 kts | 206° |
| 2026-04-15 16:34 | 49.95307 | 14.65456 | 5610 ft | 264 kts | 231° |
| 2026-04-15 16:35 | 49.94204 | 14.63171 | 5227 ft | 265 kts | 236° |
| 2026-04-15 16:35 | 49.93433 | 14.60600 | 4840 ft | 264 kts | 259° |
| 2026-04-15 16:35 | 49.93576 | 14.57806 | 4443 ft | 263 kts | 294° |
| 2026-04-15 16:35 | 49.94735 | 14.55684 | 4069 ft | 260 kts | 330° |
| 2026-04-15 16:36 | 49.96330 | 14.54534 | 4003 ft | 244 kts | 332° |
| 2026-04-15 16:36 | 49.97458 | 14.52775 | 4010 ft | 225 kts | 296° |
| 2026-04-15 16:36 | 49.98118 | 14.50658 | 4003 ft | 211 kts | 303° |
| 2026-04-15 16:36 | 49.98959 | 14.48882 | 4026 ft | 198 kts | 307° |
| 2026-04-15 16:37 | 49.99787 | 14.47215 | 4017 ft | 193 kts | 307° |
| 2026-04-15 16:37 | 50.00596 | 14.45566 | 3966 ft | 192 kts | 307° |
| 2026-04-15 16:37 | 50.01399 | 14.43920 | 3765 ft | 190 kts | 307° |
| 2026-04-15 16:37 | 50.02194 | 14.42287 | 3526 ft | 189 kts | 307° |
| 2026-04-15 16:38 | 50.02987 | 14.40656 | 3269 ft | 189 kts | 307° |
| 2026-04-15 16:38 | 50.03763 | 14.39062 | 3018 ft | 178 kts | 307° |
| 2026-04-15 16:38 | 50.04461 | 14.37624 | 2801 ft | 158 kts | 307° |
| 2026-04-15 16:38 | 50.05100 | 14.36320 | 2555 ft | 147 kts | 307° |
| 2026-04-15 16:39 | 50.05704 | 14.35072 | 2339 ft | 143 kts | 307° |
| 2026-04-15 16:39 | 50.06295 | 14.33848 | 2153 ft | 141 kts | 307° |
| 2026-04-15 16:39 | 50.06879 | 14.32639 | 1973 ft | 140 kts | 307° |
| 2026-04-15 16:39 | 50.07462 | 14.31435 | 1756 ft | 139 kts | 308° |
| 2026-04-15 16:40 | 50.08042 | 14.30239 | 1589 ft | 138 kts | 308° |
| 2026-04-15 16:40 | 50.08615 | 14.29044 | 1411 ft | 138 kts | 309° |
| 2026-04-15 16:40 | 50.09195 | 14.27862 | 1254 ft | 137 kts | 307° |
| 2026-04-15 16:40 | 50.09728 | 14.26763 | 1209 ft | 107 kts | 306° |
| 2026-04-15 16:41 | 50.10070 | 14.26048 | 1190 ft | 58 kts | 306° |
| 2026-04-15 16:41 | 50.10269 | 14.25710 | 1187 ft | 30 kts | 328° |
| 2026-04-15 16:41 | 50.10447 | 14.25671 | 1183 ft | 21 kts | 15° |
| 2026-04-15 16:41 | 50.10502 | 14.25870 | 1176 ft | 23 kts | 79° |
| 2026-04-15 16:42 | 50.10531 | 14.26092 | 1174 ft | 17 kts | 79° |
| 2026-04-15 16:42 | 50.10521 | 14.26278 | 1171 ft | 18 kts | 117° |
| 2026-04-15 16:42 | 50.10453 | 14.26431 | 1169 ft | 12 kts | 125° |
| 2026-04-15 16:42 | 50.10411 | 14.26539 | 1170 ft | 10 kts | 98° |
| 2026-04-15 16:43 | 50.10433 | 14.26581 | 1171 ft | 2 kts | 34° |
| 2026-04-15 16:43 | 50.10437 | 14.26585 | 1170 ft | 0 kts | 34° |